sensor_id;sensor_type;location;lat;lon;timestamp;P1;durP1;ratioP1;P2;durP2;ratioP2
23990;SDS011;12205;50.600;4.608;2023-08-08T00:02:17;5.35;;;0.85;;
23990;SDS011;12205;50.600;4.608;2023-08-08T00:04:44;4.22;;;0.75;;
23990;SDS011;12205;50.600;4.608;2023-08-08T00:07:12;6.90;;;0.80;;
23990;SDS011;12205;50.600;4.608;2023-08-08T00:09:39;6.55;;;0.77;;
23990;SDS011;12205;50.600;4.608;2023-08-08T00:12:07;2.97;;;0.60;;
23990;SDS011;12205;50.600;4.608;2023-08-08T00:14:34;5.63;;;0.85;;
23990;SDS011;12205;50.600;4.608;2023-08-08T00:17:01;6.95;;;0.90;;
23990;SDS011;12205;50.600;4.608;2023-08-08T00:19:28;7.90;;;0.88;;
23990;SDS011;12205;50.600;4.608;2023-08-08T00:21:56;6.97;;;1.10;;
23990;SDS011;12205;50.600;4.608;2023-08-08T00:24:24;7.70;;;1.15;;
23990;SDS011;12205;50.600;4.608;2023-08-08T00:26:51;6.68;;;0.93;;
23990;SDS011;12205;50.600;4.608;2023-08-08T00:29:18;8.98;;;1.25;;
23990;SDS011;12205;50.600;4.608;2023-08-08T00:31:45;5.95;;;1.10;;
23990;SDS011;12205;50.600;4.608;2023-08-08T00:34:13;6.72;;;0.75;;
23990;SDS011;12205;50.600;4.608;2023-08-08T00:36:40;7.75;;;1.00;;
23990;SDS011;12205;50.600;4.608;2023-08-08T00:39:07;13.75;;;1.55;;
23990;SDS011;12205;50.600;4.608;2023-08-08T00:41:36;6.65;;;0.80;;
23990;SDS011;12205;50.600;4.608;2023-08-08T00:44:03;7.28;;;1.00;;
23990;SDS011;12205;50.600;4.608;2023-08-08T00:46:31;6.13;;;1.10;;
23990;SDS011;12205;50.600;4.608;2023-08-08T00:48:58;13.07;;;1.60;;
23990;SDS011;12205;50.600;4.608;2023-08-08T00:51:25;7.15;;;0.95;;
23990;SDS011;12205;50.600;4.608;2023-08-08T00:53:53;8.85;;;1.13;;
23990;SDS011;12205;50.600;4.608;2023-08-08T00:56:22;6.15;;;1.10;;
23990;SDS011;12205;50.600;4.608;2023-08-08T00:58:51;11.85;;;1.23;;
23990;SDS011;12205;50.600;4.608;2023-08-08T01:01:18;6.07;;;1.00;;
23990;SDS011;12205;50.600;4.608;2023-08-08T01:03:45;3.78;;;0.90;;
23990;SDS011;12205;50.600;4.608;2023-08-08T01:06:15;7.28;;;0.80;;
23990;SDS011;12205;50.600;4.608;2023-08-08T01:08:51;12.35;;;1.40;;
23990;SDS011;12205;50.600;4.608;2023-08-08T01:11:26;7.78;;;0.88;;
23990;SDS011;12205;50.600;4.608;2023-08-08T01:13:59;7.80;;;0.93;;
23990;SDS011;12205;50.600;4.608;2023-08-08T01:16:27;6.95;;;0.90;;
23990;SDS011;12205;50.600;4.608;2023-08-08T01:18:56;7.43;;;0.80;;
23990;SDS011;12205;50.600;4.608;2023-08-08T01:21:24;6.60;;;0.88;;
23990;SDS011;12205;50.600;4.608;2023-08-08T01:23:59;10.20;;;1.20;;
23990;SDS011;12205;50.600;4.608;2023-08-08T01:26:43;9.50;;;1.00;;
23990;SDS011;12205;50.600;4.608;2023-08-08T01:29:10;12.15;;;1.50;;
23990;SDS011;12205;50.600;4.608;2023-08-08T01:31:38;17.13;;;1.60;;
23990;SDS011;12205;50.600;4.608;2023-08-08T01:34:05;5.35;;;0.80;;
23990;SDS011;12205;50.600;4.608;2023-08-08T01:36:34;6.97;;;0.90;;
23990;SDS011;12205;50.600;4.608;2023-08-08T01:39:13;8.65;;;1.13;;
23990;SDS011;12205;50.600;4.608;2023-08-08T01:41:46;4.72;;;0.75;;
23990;SDS011;12205;50.600;4.608;2023-08-08T01:44:15;10.85;;;1.40;;
23990;SDS011;12205;50.600;4.608;2023-08-08T01:46:43;7.88;;;0.95;;
23990;SDS011;12205;50.600;4.608;2023-08-08T01:49:13;7.50;;;0.90;;
23990;SDS011;12205;50.600;4.608;2023-08-08T01:51:40;7.55;;;0.82;;
23990;SDS011;12205;50.600;4.608;2023-08-08T01:54:07;3.15;;;0.75;;
23990;SDS011;12205;50.600;4.608;2023-08-08T01:56:36;4.72;;;0.95;;
23990;SDS011;12205;50.600;4.608;2023-08-08T01:59:03;11.02;;;1.30;;
23990;SDS011;12205;50.600;4.608;2023-08-08T02:01:30;4.97;;;0.80;;
23990;SDS011;12205;50.600;4.608;2023-08-08T02:03:57;5.82;;;0.95;;
23990;SDS011;12205;50.600;4.608;2023-08-08T02:06:26;10.38;;;0.98;;
23990;SDS011;12205;50.600;4.608;2023-08-08T02:08:53;5.15;;;0.80;;
23990;SDS011;12205;50.600;4.608;2023-08-08T02:11:20;10.85;;;1.20;;
23990;SDS011;12205;50.600;4.608;2023-08-08T02:13:49;8.35;;;1.00;;
23990;SDS011;12205;50.600;4.608;2023-08-08T02:16:16;10.00;;;0.80;;
23990;SDS011;12205;50.600;4.608;2023-08-08T02:18:42;5.20;;;1.00;;
23990;SDS011;12205;50.600;4.608;2023-08-08T02:21:09;6.43;;;0.98;;
23990;SDS011;12205;50.600;4.608;2023-08-08T02:23:37;11.18;;;1.13;;
23990;SDS011;12205;50.600;4.608;2023-08-08T02:26:05;7.57;;;1.00;;
23990;SDS011;12205;50.600;4.608;2023-08-08T02:28:32;10.75;;;1.08;;
23990;SDS011;12205;50.600;4.608;2023-08-08T02:31:00;8.88;;;1.05;;
23990;SDS011;12205;50.600;4.608;2023-08-08T02:33:27;11.73;;;1.20;;
23990;SDS011;12205;50.600;4.608;2023-08-08T02:35:54;5.78;;;1.17;;
23990;SDS011;12205;50.600;4.608;2023-08-08T02:38:21;6.35;;;0.93;;
23990;SDS011;12205;50.600;4.608;2023-08-08T02:40:48;6.30;;;0.82;;
23990;SDS011;12205;50.600;4.608;2023-08-08T02:43:16;6.93;;;0.98;;
23990;SDS011;12205;50.600;4.608;2023-08-08T02:45:43;8.95;;;1.27;;
23990;SDS011;12205;50.600;4.608;2023-08-08T02:48:11;8.77;;;0.88;;
23990;SDS011;12205;50.600;4.608;2023-08-08T02:50:38;10.35;;;1.20;;
23990;SDS011;12205;50.600;4.608;2023-08-08T02:53:06;6.95;;;0.93;;
23990;SDS011;12205;50.600;4.608;2023-08-08T02:55:39;9.63;;;1.40;;
23990;SDS011;12205;50.600;4.608;2023-08-08T02:58:06;10.38;;;1.20;;
23990;SDS011;12205;50.600;4.608;2023-08-08T03:00:33;12.57;;;1.52;;
23990;SDS011;12205;50.600;4.608;2023-08-08T03:03:01;7.95;;;1.00;;
23990;SDS011;12205;50.600;4.608;2023-08-08T03:05:31;8.35;;;1.33;;
23990;SDS011;12205;50.600;4.608;2023-08-08T03:07:59;8.85;;;1.17;;
23990;SDS011;12205;50.600;4.608;2023-08-08T03:10:27;7.13;;;1.20;;
23990;SDS011;12205;50.600;4.608;2023-08-08T03:12:55;7.53;;;1.20;;
23990;SDS011;12205;50.600;4.608;2023-08-08T03:15:22;12.52;;;1.42;;
23990;SDS011;12205;50.600;4.608;2023-08-08T03:17:49;13.10;;;1.95;;
23990;SDS011;12205;50.600;4.608;2023-08-08T03:20:18;11.18;;;1.60;;
23990;SDS011;12205;50.600;4.608;2023-08-08T03:22:46;12.23;;;1.63;;
23990;SDS011;12205;50.600;4.608;2023-08-08T03:25:13;12.85;;;1.10;;
23990;SDS011;12205;50.600;4.608;2023-08-08T03:27:41;8.35;;;1.30;;
23990;SDS011;12205;50.600;4.608;2023-08-08T03:30:12;8.60;;;1.83;;
23990;SDS011;12205;50.600;4.608;2023-08-08T03:32:41;9.13;;;1.15;;
23990;SDS011;12205;50.600;4.608;2023-08-08T03:35:08;7.85;;;1.35;;
23990;SDS011;12205;50.600;4.608;2023-08-08T03:37:38;11.45;;;1.33;;
23990;SDS011;12205;50.600;4.608;2023-08-08T03:40:07;8.32;;;1.17;;
23990;SDS011;12205;50.600;4.608;2023-08-08T03:42:35;15.60;;;2.00;;
23990;SDS011;12205;50.600;4.608;2023-08-08T03:45:03;10.60;;;1.60;;
23990;SDS011;12205;50.600;4.608;2023-08-08T03:47:31;8.23;;;1.30;;
23990;SDS011;12205;50.600;4.608;2023-08-08T03:49:58;14.80;;;2.05;;
23990;SDS011;12205;50.600;4.608;2023-08-08T03:52:26;11.90;;;1.88;;
23990;SDS011;12205;50.600;4.608;2023-08-08T03:54:53;8.68;;;1.42;;
23990;SDS011;12205;50.600;4.608;2023-08-08T03:57:22;17.08;;;2.28;;
23990;SDS011;12205;50.600;4.608;2023-08-08T03:59:50;14.77;;;1.77;;
23990;SDS011;12205;50.600;4.608;2023-08-08T04:02:17;12.85;;;1.67;;
23990;SDS011;12205;50.600;4.608;2023-08-08T04:04:44;13.18;;;1.83;;
23990;SDS011;12205;50.600;4.608;2023-08-08T04:07:12;10.15;;;1.50;;
23990;SDS011;12205;50.600;4.608;2023-08-08T04:09:39;8.57;;;1.40;;
23990;SDS011;12205;50.600;4.608;2023-08-08T04:12:07;11.07;;;1.85;;
23990;SDS011;12205;50.600;4.608;2023-08-08T04:14:36;11.25;;;1.60;;
23990;SDS011;12205;50.600;4.608;2023-08-08T04:17:03;16.70;;;1.90;;
23990;SDS011;12205;50.600;4.608;2023-08-08T04:19:31;6.55;;;1.20;;
23990;SDS011;12205;50.600;4.608;2023-08-08T04:21:58;9.27;;;1.38;;
23990;SDS011;12205;50.600;4.608;2023-08-08T04:24:25;14.18;;;1.90;;
23990;SDS011;12205;50.600;4.608;2023-08-08T04:26:52;14.48;;;1.58;;
23990;SDS011;12205;50.600;4.608;2023-08-08T04:29:19;9.35;;;1.30;;
23990;SDS011;12205;50.600;4.608;2023-08-08T04:31:47;13.48;;;2.10;;
23990;SDS011;12205;50.600;4.608;2023-08-08T04:34:14;5.88;;;1.20;;
23990;SDS011;12205;50.600;4.608;2023-08-08T04:36:42;16.65;;;1.75;;
23990;SDS011;12205;50.600;4.608;2023-08-08T04:39:09;10.43;;;1.30;;
23990;SDS011;12205;50.600;4.608;2023-08-08T04:41:36;8.60;;;1.30;;
23990;SDS011;12205;50.600;4.608;2023-08-08T04:44:03;12.02;;;1.50;;
23990;SDS011;12205;50.600;4.608;2023-08-08T04:46:31;10.02;;;1.42;;
23990;SDS011;12205;50.600;4.608;2023-08-08T04:48:59;9.82;;;1.10;;
23990;SDS011;12205;50.600;4.608;2023-08-08T04:51:26;8.55;;;1.30;;
23990;SDS011;12205;50.600;4.608;2023-08-08T04:53:53;22.33;;;2.67;;
23990;SDS011;12205;50.600;4.608;2023-08-08T04:56:20;12.82;;;1.65;;
23990;SDS011;12205;50.600;4.608;2023-08-08T04:58:47;11.30;;;1.90;;
23990;SDS011;12205;50.600;4.608;2023-08-08T05:01:14;15.38;;;1.70;;
23990;SDS011;12205;50.600;4.608;2023-08-08T05:03:43;7.45;;;1.42;;
23990;SDS011;12205;50.600;4.608;2023-08-08T05:06:11;10.80;;;1.33;;
23990;SDS011;12205;50.600;4.608;2023-08-08T05:08:38;12.50;;;1.75;;
23990;SDS011;12205;50.600;4.608;2023-08-08T05:11:05;9.90;;;1.20;;
23990;SDS011;12205;50.600;4.608;2023-08-08T05:13:32;8.35;;;1.00;;
23990;SDS011;12205;50.600;4.608;2023-08-08T05:15:59;11.55;;;1.42;;
23990;SDS011;12205;50.600;4.608;2023-08-08T05:18:26;14.18;;;1.60;;
23990;SDS011;12205;50.600;4.608;2023-08-08T05:20:53;9.63;;;1.30;;
23990;SDS011;12205;50.600;4.608;2023-08-08T05:23:22;14.32;;;1.63;;
23990;SDS011;12205;50.600;4.608;2023-08-08T05:25:49;12.70;;;1.95;;
23990;SDS011;12205;50.600;4.608;2023-08-08T05:28:16;12.65;;;1.60;;
23990;SDS011;12205;50.600;4.608;2023-08-08T05:30:43;14.93;;;1.85;;
23990;SDS011;12205;50.600;4.608;2023-08-08T05:33:11;10.02;;;1.23;;
23990;SDS011;12205;50.600;4.608;2023-08-08T05:35:38;13.38;;;1.95;;
23990;SDS011;12205;50.600;4.608;2023-08-08T05:38:05;20.45;;;2.15;;
23990;SDS011;12205;50.600;4.608;2023-08-08T05:40:35;15.63;;;2.17;;
23990;SDS011;12205;50.600;4.608;2023-08-08T05:43:02;13.88;;;1.55;;
23990;SDS011;12205;50.600;4.608;2023-08-08T05:45:30;15.20;;;1.70;;
23990;SDS011;12205;50.600;4.608;2023-08-08T05:47:57;8.45;;;1.17;;
23990;SDS011;12205;50.600;4.608;2023-08-08T05:50:26;10.65;;;1.20;;
23990;SDS011;12205;50.600;4.608;2023-08-08T05:52:53;10.20;;;1.50;;
23990;SDS011;12205;50.600;4.608;2023-08-08T05:55:20;11.75;;;1.40;;
23990;SDS011;12205;50.600;4.608;2023-08-08T05:57:49;9.52;;;1.35;;
23990;SDS011;12205;50.600;4.608;2023-08-08T06:00:16;12.32;;;1.15;;
23990;SDS011;12205;50.600;4.608;2023-08-08T06:02:43;15.73;;;1.80;;
23990;SDS011;12205;50.600;4.608;2023-08-08T06:05:11;19.15;;;2.33;;
23990;SDS011;12205;50.600;4.608;2023-08-08T06:07:38;17.05;;;1.50;;
23990;SDS011;12205;50.600;4.608;2023-08-08T06:10:05;4.85;;;1.13;;
23990;SDS011;12205;50.600;4.608;2023-08-08T06:12:33;12.35;;;1.33;;
23990;SDS011;12205;50.600;4.608;2023-08-08T06:15:02;18.17;;;1.73;;
23990;SDS011;12205;50.600;4.608;2023-08-08T06:17:30;15.23;;;2.38;;
23990;SDS011;12205;50.600;4.608;2023-08-08T06:19:57;13.18;;;1.52;;
23990;SDS011;12205;50.600;4.608;2023-08-08T06:22:24;8.88;;;1.30;;
23990;SDS011;12205;50.600;4.608;2023-08-08T06:24:51;12.63;;;2.05;;
23990;SDS011;12205;50.600;4.608;2023-08-08T06:27:18;12.80;;;1.50;;
23990;SDS011;12205;50.600;4.608;2023-08-08T06:29:45;8.85;;;1.35;;
23990;SDS011;12205;50.600;4.608;2023-08-08T06:32:14;12.30;;;1.73;;
23990;SDS011;12205;50.600;4.608;2023-08-08T06:34:41;9.32;;;1.50;;
23990;SDS011;12205;50.600;4.608;2023-08-08T06:37:08;11.35;;;1.40;;
23990;SDS011;12205;50.600;4.608;2023-08-08T06:39:35;12.70;;;1.55;;
23990;SDS011;12205;50.600;4.608;2023-08-08T06:42:03;12.20;;;1.60;;
23990;SDS011;12205;50.600;4.608;2023-08-08T06:44:41;9.57;;;1.40;;
23990;SDS011;12205;50.600;4.608;2023-08-08T06:47:10;9.10;;;1.27;;
23990;SDS011;12205;50.600;4.608;2023-08-08T06:49:39;10.18;;;1.20;;
23990;SDS011;12205;50.600;4.608;2023-08-08T06:52:06;15.68;;;2.33;;
23990;SDS011;12205;50.600;4.608;2023-08-08T06:54:33;17.17;;;1.85;;
23990;SDS011;12205;50.600;4.608;2023-08-08T06:57:00;10.10;;;1.45;;
23990;SDS011;12205;50.600;4.608;2023-08-08T06:59:27;14.02;;;2.08;;
23990;SDS011;12205;50.600;4.608;2023-08-08T07:01:54;21.58;;;2.63;;
23990;SDS011;12205;50.600;4.608;2023-08-08T07:04:22;17.08;;;1.85;;
23990;SDS011;12205;50.600;4.608;2023-08-08T07:06:51;19.02;;;2.13;;
23990;SDS011;12205;50.600;4.608;2023-08-08T07:09:18;17.08;;;1.90;;
23990;SDS011;12205;50.600;4.608;2023-08-08T07:11:46;16.20;;;1.60;;
23990;SDS011;12205;50.600;4.608;2023-08-08T07:14:13;10.02;;;1.35;;
23990;SDS011;12205;50.600;4.608;2023-08-08T07:16:40;14.20;;;1.50;;
23990;SDS011;12205;50.600;4.608;2023-08-08T07:19:07;13.27;;;1.52;;
23990;SDS011;12205;50.600;4.608;2023-08-08T07:21:36;13.07;;;1.42;;
23990;SDS011;12205;50.600;4.608;2023-08-08T07:24:07;10.40;;;1.45;;
23990;SDS011;12205;50.600;4.608;2023-08-08T07:26:35;23.42;;;2.20;;
23990;SDS011;12205;50.600;4.608;2023-08-08T07:29:02;10.02;;;1.52;;
23990;SDS011;12205;50.600;4.608;2023-08-08T07:31:31;16.45;;;2.05;;
23990;SDS011;12205;50.600;4.608;2023-08-08T07:33:58;15.32;;;1.85;;
23990;SDS011;12205;50.600;4.608;2023-08-08T07:36:26;12.05;;;1.13;;
23990;SDS011;12205;50.600;4.608;2023-08-08T07:38:53;6.35;;;1.05;;
23990;SDS011;12205;50.600;4.608;2023-08-08T07:43:53;13.73;;;1.45;;
23990;SDS011;12205;50.600;4.608;2023-08-08T07:46:20;8.52;;;1.30;;
23990;SDS011;12205;50.600;4.608;2023-08-08T07:48:47;13.07;;;1.48;;
23990;SDS011;12205;50.600;4.608;2023-08-08T07:51:14;11.93;;;1.63;;
23990;SDS011;12205;50.600;4.608;2023-08-08T07:53:41;15.23;;;1.75;;
23990;SDS011;12205;50.600;4.608;2023-08-08T07:56:08;10.43;;;1.10;;
23990;SDS011;12205;50.600;4.608;2023-08-08T07:58:37;11.32;;;1.48;;
23990;SDS011;12205;50.600;4.608;2023-08-08T08:01:04;18.95;;;2.33;;
23990;SDS011;12205;50.600;4.608;2023-08-08T08:03:31;21.98;;;1.92;;
23990;SDS011;12205;50.600;4.608;2023-08-08T08:05:58;14.30;;;1.75;;
23990;SDS011;12205;50.600;4.608;2023-08-08T08:08:25;25.15;;;2.08;;
23990;SDS011;12205;50.600;4.608;2023-08-08T08:10:52;8.88;;;0.90;;
23990;SDS011;12205;50.600;4.608;2023-08-08T08:13:20;9.60;;;1.10;;
23990;SDS011;12205;50.600;4.608;2023-08-08T08:15:48;8.57;;;0.98;;
23990;SDS011;12205;50.600;4.608;2023-08-08T08:18:15;10.98;;;1.30;;
23990;SDS011;12205;50.600;4.608;2023-08-08T08:20:43;16.80;;;1.40;;
23990;SDS011;12205;50.600;4.608;2023-08-08T08:23:10;9.95;;;1.15;;
23990;SDS011;12205;50.600;4.608;2023-08-08T08:25:37;8.65;;;1.00;;
23990;SDS011;12205;50.600;4.608;2023-08-08T08:28:04;9.07;;;0.98;;
23990;SDS011;12205;50.600;4.608;2023-08-08T08:30:31;9.68;;;1.10;;
23990;SDS011;12205;50.600;4.608;2023-08-08T08:33:00;7.32;;;1.00;;
23990;SDS011;12205;50.600;4.608;2023-08-08T08:35:29;13.52;;;1.30;;
23990;SDS011;12205;50.600;4.608;2023-08-08T08:37:56;8.05;;;1.02;;
23990;SDS011;12205;50.600;4.608;2023-08-08T08:40:23;9.35;;;1.15;;
23990;SDS011;12205;50.600;4.608;2023-08-08T08:42:50;13.70;;;1.30;;
23990;SDS011;12205;50.600;4.608;2023-08-08T08:45:19;5.68;;;0.75;;
23990;SDS011;12205;50.600;4.608;2023-08-08T08:47:48;8.68;;;0.60;;
23990;SDS011;12205;50.600;4.608;2023-08-08T08:50:24;17.20;;;1.90;;
23990;SDS011;12205;50.600;4.608;2023-08-08T08:52:54;10.15;;;0.85;;
23990;SDS011;12205;50.600;4.608;2023-08-08T08:55:23;9.65;;;0.88;;
23990;SDS011;12205;50.600;4.608;2023-08-08T08:57:51;7.50;;;0.80;;
23990;SDS011;12205;50.600;4.608;2023-08-08T09:00:19;9.82;;;0.98;;
23990;SDS011;12205;50.600;4.608;2023-08-08T09:02:47;9.20;;;1.05;;
23990;SDS011;12205;50.600;4.608;2023-08-08T09:05:15;8.55;;;1.17;;
23990;SDS011;12205;50.600;4.608;2023-08-08T09:07:48;8.35;;;0.80;;
23990;SDS011;12205;50.600;4.608;2023-08-08T09:10:16;7.07;;;0.70;;
23990;SDS011;12205;50.600;4.608;2023-08-08T09:12:46;8.30;;;0.60;;
23990;SDS011;12205;50.600;4.608;2023-08-08T09:15:14;5.20;;;0.52;;
23990;SDS011;12205;50.600;4.608;2023-08-08T09:17:41;8.82;;;1.08;;
23990;SDS011;12205;50.600;4.608;2023-08-08T09:20:11;6.50;;;0.70;;
23990;SDS011;12205;50.600;4.608;2023-08-08T09:22:39;11.82;;;0.98;;
23990;SDS011;12205;50.600;4.608;2023-08-08T09:25:08;10.02;;;0.70;;
23990;SDS011;12205;50.600;4.608;2023-08-08T09:27:35;4.57;;;0.95;;
23990;SDS011;12205;50.600;4.608;2023-08-08T09:30:02;8.43;;;0.60;;
23990;SDS011;12205;50.600;4.608;2023-08-08T09:32:31;11.30;;;0.90;;
23990;SDS011;12205;50.600;4.608;2023-08-08T09:35:00;10.80;;;0.80;;
23990;SDS011;12205;50.600;4.608;2023-08-08T09:37:28;6.82;;;0.90;;
23990;SDS011;12205;50.600;4.608;2023-08-08T09:39:56;6.95;;;0.63;;
23990;SDS011;12205;50.600;4.608;2023-08-08T09:42:25;10.65;;;0.93;;
23990;SDS011;12205;50.600;4.608;2023-08-08T09:44:53;6.78;;;0.77;;
23990;SDS011;12205;50.600;4.608;2023-08-08T09:47:22;6.43;;;0.75;;
23990;SDS011;12205;50.600;4.608;2023-08-08T09:49:50;7.60;;;0.93;;
23990;SDS011;12205;50.600;4.608;2023-08-08T09:52:17;5.47;;;0.50;;
23990;SDS011;12205;50.600;4.608;2023-08-08T09:54:46;5.00;;;0.55;;
23990;SDS011;12205;50.600;4.608;2023-08-08T09:57:15;6.22;;;0.40;;
23990;SDS011;12205;50.600;4.608;2023-08-08T09:59:45;6.18;;;0.80;;
23990;SDS011;12205;50.600;4.608;2023-08-08T10:02:13;4.75;;;0.43;;
23990;SDS011;12205;50.600;4.608;2023-08-08T10:04:41;4.43;;;0.63;;
23990;SDS011;12205;50.600;4.608;2023-08-08T10:07:11;6.43;;;0.70;;
23990;SDS011;12205;50.600;4.608;2023-08-08T10:09:38;7.28;;;0.85;;
23990;SDS011;12205;50.600;4.608;2023-08-08T10:12:06;5.50;;;0.68;;
23990;SDS011;12205;50.600;4.608;2023-08-08T10:14:35;6.53;;;0.80;;
23990;SDS011;12205;50.600;4.608;2023-08-08T10:17:06;5.57;;;0.52;;
23990;SDS011;12205;50.600;4.608;2023-08-08T10:19:33;6.70;;;0.65;;
23990;SDS011;12205;50.600;4.608;2023-08-08T10:22:03;6.97;;;0.60;;
23990;SDS011;12205;50.600;4.608;2023-08-08T10:24:32;4.95;;;0.60;;
23990;SDS011;12205;50.600;4.608;2023-08-08T10:27:02;7.45;;;0.70;;
23990;SDS011;12205;50.600;4.608;2023-08-08T10:29:30;7.90;;;0.65;;
23990;SDS011;12205;50.600;4.608;2023-08-08T10:32:00;6.85;;;0.68;;
23990;SDS011;12205;50.600;4.608;2023-08-08T10:34:37;8.82;;;0.80;;
23990;SDS011;12205;50.600;4.608;2023-08-08T10:37:09;7.10;;;0.70;;
23990;SDS011;12205;50.600;4.608;2023-08-08T10:39:37;3.65;;;0.50;;
23990;SDS011;12205;50.600;4.608;2023-08-08T10:42:17;6.47;;;0.60;;
23990;SDS011;12205;50.600;4.608;2023-08-08T10:44:50;3.47;;;0.45;;
23990;SDS011;12205;50.600;4.608;2023-08-08T10:47:21;8.95;;;0.60;;
23990;SDS011;12205;50.600;4.608;2023-08-08T10:49:57;4.95;;;0.50;;
23990;SDS011;12205;50.600;4.608;2023-08-08T10:52:29;5.32;;;0.63;;
23990;SDS011;12205;50.600;4.608;2023-08-08T10:54:57;7.90;;;0.70;;
23990;SDS011;12205;50.600;4.608;2023-08-08T10:57:24;5.15;;;0.52;;
23990;SDS011;12205;50.600;4.608;2023-08-08T10:59:53;5.95;;;0.55;;
23990;SDS011;12205;50.600;4.608;2023-08-08T11:02:20;7.25;;;0.60;;
23990;SDS011;12205;50.600;4.608;2023-08-08T11:04:48;4.00;;;0.68;;
23990;SDS011;12205;50.600;4.608;2023-08-08T11:07:17;9.45;;;0.60;;
23990;SDS011;12205;50.600;4.608;2023-08-08T11:09:45;11.27;;;0.60;;
23990;SDS011;12205;50.600;4.608;2023-08-08T11:12:15;7.30;;;0.73;;
23990;SDS011;12205;50.600;4.608;2023-08-08T11:14:42;6.88;;;0.70;;
23990;SDS011;12205;50.600;4.608;2023-08-08T11:17:09;9.23;;;1.10;;
23990;SDS011;12205;50.600;4.608;2023-08-08T11:19:38;5.80;;;0.80;;
23990;SDS011;12205;50.600;4.608;2023-08-08T11:22:09;4.32;;;0.50;;
23990;SDS011;12205;50.600;4.608;2023-08-08T11:24:39;8.70;;;0.68;;
23990;SDS011;12205;50.600;4.608;2023-08-08T11:27:06;6.95;;;0.50;;
23990;SDS011;12205;50.600;4.608;2023-08-08T11:29:33;5.72;;;0.40;;
23990;SDS011;12205;50.600;4.608;2023-08-08T11:32:00;8.32;;;0.60;;
23990;SDS011;12205;50.600;4.608;2023-08-08T11:34:30;6.40;;;0.65;;
23990;SDS011;12205;50.600;4.608;2023-08-08T11:36:58;5.43;;;0.68;;
23990;SDS011;12205;50.600;4.608;2023-08-08T11:39:26;5.35;;;0.50;;
23990;SDS011;12205;50.600;4.608;2023-08-08T11:41:59;5.53;;;0.50;;
23990;SDS011;12205;50.600;4.608;2023-08-08T11:44:26;8.80;;;0.82;;
23990;SDS011;12205;50.600;4.608;2023-08-08T11:46:54;5.88;;;0.60;;
23990;SDS011;12205;50.600;4.608;2023-08-08T11:49:21;6.18;;;0.50;;
23990;SDS011;12205;50.600;4.608;2023-08-08T11:51:48;2.20;;;0.35;;
23990;SDS011;12205;50.600;4.608;2023-08-08T11:54:16;8.27;;;0.60;;
23990;SDS011;12205;50.600;4.608;2023-08-08T11:56:43;3.70;;;0.38;;
23990;SDS011;12205;50.600;4.608;2023-08-08T11:59:11;3.85;;;0.30;;
23990;SDS011;12205;50.600;4.608;2023-08-08T12:01:39;4.78;;;0.30;;
23990;SDS011;12205;50.600;4.608;2023-08-08T12:04:09;5.07;;;0.22;;
23990;SDS011;12205;50.600;4.608;2023-08-08T12:06:37;2.15;;;0.35;;
23990;SDS011;12205;50.600;4.608;2023-08-08T12:09:05;3.50;;;0.20;;
23990;SDS011;12205;50.600;4.608;2023-08-08T12:11:34;3.13;;;0.30;;
23990;SDS011;12205;50.600;4.608;2023-08-08T12:14:02;3.13;;;0.20;;
23990;SDS011;12205;50.600;4.608;2023-08-08T12:16:31;7.25;;;0.40;;
23990;SDS011;12205;50.600;4.608;2023-08-08T12:19:00;1.20;;;0.10;;
23990;SDS011;12205;50.600;4.608;2023-08-08T12:21:28;1.93;;;0.30;;
23990;SDS011;12205;50.600;4.608;2023-08-08T12:23:56;3.22;;;0.50;;
23990;SDS011;12205;50.600;4.608;2023-08-08T12:26:23;4.72;;;0.50;;
23990;SDS011;12205;50.600;4.608;2023-08-08T12:28:50;1.92;;;0.50;;
23990;SDS011;12205;50.600;4.608;2023-08-08T12:31:19;2.15;;;0.47;;
23990;SDS011;12205;50.600;4.608;2023-08-08T12:33:47;6.75;;;0.60;;
23990;SDS011;12205;50.600;4.608;2023-08-08T12:36:14;3.08;;;0.52;;
23990;SDS011;12205;50.600;4.608;2023-08-08T12:38:41;2.17;;;0.40;;
23990;SDS011;12205;50.600;4.608;2023-08-08T12:41:10;4.38;;;0.50;;
23990;SDS011;12205;50.600;4.608;2023-08-08T12:43:37;3.17;;;0.52;;
23990;SDS011;12205;50.600;4.608;2023-08-08T12:46:05;2.95;;;0.70;;
23990;SDS011;12205;50.600;4.608;2023-08-08T12:48:32;7.78;;;0.65;;
23990;SDS011;12205;50.600;4.608;2023-08-08T12:51:00;7.82;;;0.93;;
23990;SDS011;12205;50.600;4.608;2023-08-08T12:53:28;5.07;;;0.50;;
23990;SDS011;12205;50.600;4.608;2023-08-08T12:55:55;2.63;;;0.50;;
23990;SDS011;12205;50.600;4.608;2023-08-08T12:58:22;3.60;;;0.40;;
23990;SDS011;12205;50.600;4.608;2023-08-08T13:00:49;4.47;;;0.60;;
23990;SDS011;12205;50.600;4.608;2023-08-08T13:03:17;3.50;;;0.70;;
23990;SDS011;12205;50.600;4.608;2023-08-08T13:05:45;5.00;;;0.80;;
23990;SDS011;12205;50.600;4.608;2023-08-08T13:08:14;4.03;;;0.57;;
23990;SDS011;12205;50.600;4.608;2023-08-08T13:10:41;3.13;;;0.60;;
23990;SDS011;12205;50.600;4.608;2023-08-08T13:13:08;2.13;;;0.50;;
23990;SDS011;12205;50.600;4.608;2023-08-08T13:15:36;5.93;;;1.00;;
23990;SDS011;12205;50.600;4.608;2023-08-08T13:18:03;3.42;;;0.70;;
23990;SDS011;12205;50.600;4.608;2023-08-08T13:20:31;6.13;;;0.93;;
23990;SDS011;12205;50.600;4.608;2023-08-08T13:22:58;7.00;;;0.95;;
23990;SDS011;12205;50.600;4.608;2023-08-08T13:25:27;4.38;;;0.80;;
23990;SDS011;12205;50.600;4.608;2023-08-08T13:27:54;4.45;;;0.75;;
23990;SDS011;12205;50.600;4.608;2023-08-08T13:30:21;1.58;;;0.40;;
23990;SDS011;12205;50.600;4.608;2023-08-08T13:32:48;3.05;;;0.47;;
23990;SDS011;12205;50.600;4.608;2023-08-08T13:35:15;2.55;;;0.30;;
23990;SDS011;12205;50.600;4.608;2023-08-08T13:37:42;3.33;;;0.50;;
23990;SDS011;12205;50.600;4.608;2023-08-08T13:40:11;5.13;;;0.40;;
23990;SDS011;12205;50.600;4.608;2023-08-08T13:42:39;3.63;;;0.40;;
23990;SDS011;12205;50.600;4.608;2023-08-08T13:45:07;4.63;;;0.38;;
23990;SDS011;12205;50.600;4.608;2023-08-08T13:47:35;6.20;;;0.50;;
23990;SDS011;12205;50.600;4.608;2023-08-08T13:50:02;1.55;;;0.38;;
23990;SDS011;12205;50.600;4.608;2023-08-08T13:52:31;2.42;;;0.25;;
23990;SDS011;12205;50.600;4.608;2023-08-08T13:54:58;1.23;;;0.20;;
23990;SDS011;12205;50.600;4.608;2023-08-08T13:57:26;2.97;;;0.40;;
23990;SDS011;12205;50.600;4.608;2023-08-08T13:59:54;2.42;;;0.30;;
23990;SDS011;12205;50.600;4.608;2023-08-08T14:02:21;2.88;;;0.30;;
23990;SDS011;12205;50.600;4.608;2023-08-08T14:04:48;2.97;;;0.40;;
23990;SDS011;12205;50.600;4.608;2023-08-08T14:07:17;1.80;;;0.32;;
23990;SDS011;12205;50.600;4.608;2023-08-08T14:09:46;3.97;;;0.40;;
23990;SDS011;12205;50.600;4.608;2023-08-08T14:12:14;1.35;;;0.20;;
23990;SDS011;12205;50.600;4.608;2023-08-08T14:14:41;2.63;;;0.40;;
23990;SDS011;12205;50.600;4.608;2023-08-08T14:17:10;3.47;;;0.30;;
23990;SDS011;12205;50.600;4.608;2023-08-08T14:19:37;4.47;;;0.30;;
23990;SDS011;12205;50.600;4.608;2023-08-08T14:22:04;1.50;;;0.20;;
23990;SDS011;12205;50.600;4.608;2023-08-08T14:24:31;1.45;;;0.20;;
23990;SDS011;12205;50.600;4.608;2023-08-08T14:26:58;2.28;;;0.30;;
23990;SDS011;12205;50.600;4.608;2023-08-08T14:29:25;2.22;;;0.38;;
23990;SDS011;12205;50.600;4.608;2023-08-08T14:31:53;2.85;;;0.20;;
23990;SDS011;12205;50.600;4.608;2023-08-08T14:34:27;1.55;;;0.30;;
23990;SDS011;12205;50.600;4.608;2023-08-08T14:36:56;4.88;;;0.50;;
23990;SDS011;12205;50.600;4.608;2023-08-08T14:39:23;1.45;;;0.25;;
23990;SDS011;12205;50.600;4.608;2023-08-08T14:41:51;1.10;;;0.25;;
23990;SDS011;12205;50.600;4.608;2023-08-08T14:44:18;1.52;;;0.28;;
23990;SDS011;12205;50.600;4.608;2023-08-08T14:46:45;4.22;;;0.30;;
23990;SDS011;12205;50.600;4.608;2023-08-08T14:49:12;1.63;;;0.38;;
23990;SDS011;12205;50.600;4.608;2023-08-08T14:51:40;3.22;;;0.20;;